sensor_id;sensor_type;location;lat;lon;timestamp;temperature;humidity
67752;DHT22;54551;51.068;5.826;2022-12-10T00:01:52;0.00;99.90
67752;DHT22;54551;51.068;5.826;2022-12-10T00:04:18;-0.10;99.90
67752;DHT22;54551;51.068;5.826;2022-12-10T00:06:46;-0.10;99.90
67752;DHT22;54551;51.068;5.826;2022-12-10T00:09:15;-0.10;99.90
67752;DHT22;54551;51.068;5.826;2022-12-10T00:11:42;-0.10;99.90
67752;DHT22;54551;51.068;5.826;2022-12-10T00:14:08;-0.10;99.90
67752;DHT22;54551;51.068;5.826;2022-12-10T00:16:34;-0.10;99.90
67752;DHT22;54551;51.068;5.826;2022-12-10T00:19:00;-0.10;99.90
67752;DHT22;54551;51.068;5.826;2022-12-10T00:21:29;-0.10;99.90
67752;DHT22;54551;51.068;5.826;2022-12-10T00:23:56;-0.20;99.90
67752;DHT22;54551;51.068;5.826;2022-12-10T00:26:34;-0.20;99.90
67752;DHT22;54551;51.068;5.826;2022-12-10T00:29:03;-0.20;99.90
67752;DHT22;54551;51.068;5.826;2022-12-10T00:31:32;-0.30;99.90
67752;DHT22;54551;51.068;5.826;2022-12-10T00:34:03;-0.30;99.90
67752;DHT22;54551;51.068;5.826;2022-12-10T00:36:39;-0.30;99.90
67752;DHT22;54551;51.068;5.826;2022-12-10T00:39:05;-0.30;99.90
67752;DHT22;54551;51.068;5.826;2022-12-10T00:41:31;-0.30;99.90
67752;DHT22;54551;51.068;5.826;2022-12-10T00:43:57;-0.40;99.90
67752;DHT22;54551;51.068;5.826;2022-12-10T00:46:23;-0.40;99.90
67752;DHT22;54551;51.068;5.826;2022-12-10T00:48:49;-0.40;99.90
67752;DHT22;54551;51.068;5.826;2022-12-10T00:51:21;-0.40;99.90
67752;DHT22;54551;51.068;5.826;2022-12-10T00:53:49;-0.40;99.90
67752;DHT22;54551;51.068;5.826;2022-12-10T00:56:17;-0.40;99.90
67752;DHT22;54551;51.068;5.826;2022-12-10T00:58:43;-0.40;99.90
67752;DHT22;54551;51.068;5.826;2022-12-10T01:03:40;-0.40;99.90
67752;DHT22;54551;51.068;5.826;2022-12-10T01:06:15;-0.40;99.90
67752;DHT22;54551;51.068;5.826;2022-12-10T01:08:42;-0.40;99.90
67752;DHT22;54551;51.068;5.826;2022-12-10T01:11:10;-0.40;99.90
67752;DHT22;54551;51.068;5.826;2022-12-10T01:13:36;-0.50;99.90
67752;DHT22;54551;51.068;5.826;2022-12-10T01:16:04;-0.50;99.90
67752;DHT22;54551;51.068;5.826;2022-12-10T01:18:30;-0.50;99.90
67752;DHT22;54551;51.068;5.826;2022-12-10T01:21:04;-0.50;99.90
67752;DHT22;54551;51.068;5.826;2022-12-10T01:23:35;-0.50;99.90
67752;DHT22;54551;51.068;5.826;2022-12-10T01:26:07;-0.50;99.90
67752;DHT22;54551;51.068;5.826;2022-12-10T01:28:35;-0.40;99.90
67752;DHT22;54551;51.068;5.826;2022-12-10T01:31:04;-0.40;99.90
67752;DHT22;54551;51.068;5.826;2022-12-10T01:33:32;-0.40;99.90
67752;DHT22;54551;51.068;5.826;2022-12-10T01:36:04;-0.30;99.90
67752;DHT22;54551;51.068;5.826;2022-12-10T01:38:30;-0.20;99.90
67752;DHT22;54551;51.068;5.826;2022-12-10T01:40:57;-0.20;99.90
67752;DHT22;54551;51.068;5.826;2022-12-10T01:43:23;-0.10;99.90
67752;DHT22;54551;51.068;5.826;2022-12-10T01:45:49;0.00;99.90
67752;DHT22;54551;51.068;5.826;2022-12-10T01:48:15;0.10;99.90
67752;DHT22;54551;51.068;5.826;2022-12-10T01:50:41;0.10;99.90
67752;DHT22;54551;51.068;5.826;2022-12-10T01:53:07;0.20;99.90
67752;DHT22;54551;51.068;5.826;2022-12-10T01:55:48;0.20;99.90
67752;DHT22;54551;51.068;5.826;2022-12-10T01:58:16;0.30;99.90
67752;DHT22;54551;51.068;5.826;2022-12-10T02:01:14;0.30;99.90
67752;DHT22;54551;51.068;5.826;2022-12-10T02:06:34;0.30;99.90
67752;DHT22;54551;51.068;5.826;2022-12-10T02:09:22;0.40;99.90
67752;DHT22;54551;51.068;5.826;2022-12-10T02:20:36;0.40;99.90
67752;DHT22;54551;51.068;5.826;2022-12-10T02:23:12;0.50;99.90
67752;DHT22;54551;51.068;5.826;2022-12-10T02:26:16;0.60;99.90
67752;DHT22;54551;51.068;5.826;2022-12-10T02:31:35;0.80;99.90
67752;DHT22;54551;51.068;5.826;2022-12-10T02:34:05;0.80;99.90
67752;DHT22;54551;51.068;5.826;2022-12-10T02:36:35;0.90;99.90
67752;DHT22;54551;51.068;5.826;2022-12-10T02:39:05;0.90;99.90
67752;DHT22;54551;51.068;5.826;2022-12-10T02:41:35;1.00;99.90
67752;DHT22;54551;51.068;5.826;2022-12-10T02:44:06;1.00;99.90
67752;DHT22;54551;51.068;5.826;2022-12-10T02:46:34;1.00;99.90
67752;DHT22;54551;51.068;5.826;2022-12-10T02:49:05;1.00;99.90
67752;DHT22;54551;51.068;5.826;2022-12-10T02:51:32;1.10;99.90
67752;DHT22;54551;51.068;5.826;2022-12-10T02:54:00;1.10;99.90
67752;DHT22;54551;51.068;5.826;2022-12-10T02:58:58;1.20;99.90
67752;DHT22;54551;51.068;5.826;2022-12-10T03:01:37;1.20;99.90
67752;DHT22;54551;51.068;5.826;2022-12-10T03:04:25;1.20;99.90
67752;DHT22;54551;51.068;5.826;2022-12-10T03:07:00;1.20;99.90
67752;DHT22;54551;51.068;5.826;2022-12-10T03:09:36;1.30;99.90
67752;DHT22;54551;51.068;5.826;2022-12-10T03:12:10;1.30;99.90
67752;DHT22;54551;51.068;5.826;2022-12-10T03:14:40;1.30;99.90
67752;DHT22;54551;51.068;5.826;2022-12-10T03:17:06;1.30;99.90
67752;DHT22;54551;51.068;5.826;2022-12-10T03:19:47;1.40;99.90
67752;DHT22;54551;51.068;5.826;2022-12-10T03:22:16;1.40;99.90
67752;DHT22;54551;51.068;5.826;2022-12-10T03:24:44;1.40;99.90
67752;DHT22;54551;51.068;5.826;2022-12-10T03:27:11;1.30;99.90
67752;DHT22;54551;51.068;5.826;2022-12-10T03:29:43;1.30;99.90
67752;DHT22;54551;51.068;5.826;2022-12-10T03:32:11;1.30;99.90
67752;DHT22;54551;51.068;5.826;2022-12-10T03:34:38;1.30;99.90
67752;DHT22;54551;51.068;5.826;2022-12-10T03:37:04;1.20;99.90
67752;DHT22;54551;51.068;5.826;2022-12-10T03:39:31;1.20;99.90
67752;DHT22;54551;51.068;5.826;2022-12-10T03:41:57;1.10;99.90
67752;DHT22;54551;51.068;5.826;2022-12-10T03:44:31;1.10;99.90
67752;DHT22;54551;51.068;5.826;2022-12-10T03:46:57;1.20;99.90
67752;DHT22;54551;51.068;5.826;2022-12-10T03:49:24;1.10;99.90
67752;DHT22;54551;51.068;5.826;2022-12-10T03:51:50;1.10;99.90
67752;DHT22;54551;51.068;5.826;2022-12-10T03:54:16;1.10;99.90
67752;DHT22;54551;51.068;5.826;2022-12-10T03:56:42;1.10;99.90
67752;DHT22;54551;51.068;5.826;2022-12-10T03:59:08;1.10;99.90
67752;DHT22;54551;51.068;5.826;2022-12-10T04:01:34;1.10;99.90
67752;DHT22;54551;51.068;5.826;2022-12-10T04:04:00;1.10;99.90
67752;DHT22;54551;51.068;5.826;2022-12-10T04:06:26;1.10;99.90
67752;DHT22;54551;51.068;5.826;2022-12-10T04:08:52;1.10;99.90
67752;DHT22;54551;51.068;5.826;2022-12-10T04:11:18;1.10;99.90
67752;DHT22;54551;51.068;5.826;2022-12-10T04:13:44;1.10;99.90
67752;DHT22;54551;51.068;5.826;2022-12-10T04:16:33;1.20;99.90
67752;DHT22;54551;51.068;5.826;2022-12-10T04:19:25;1.10;99.90
67752;DHT22;54551;51.068;5.826;2022-12-10T04:21:51;1.20;99.90
67752;DHT22;54551;51.068;5.826;2022-12-10T04:24:37;1.10;99.90
67752;DHT22;54551;51.068;5.826;2022-12-10T04:27:31;1.10;99.90
67752;DHT22;54551;51.068;5.826;2022-12-10T04:29:59;1.10;99.90
67752;DHT22;54551;51.068;5.826;2022-12-10T04:32:27;1.10;99.90
67752;DHT22;54551;51.068;5.826;2022-12-10T04:34:53;1.20;99.90
67752;DHT22;54551;51.068;5.826;2022-12-10T04:37:19;1.20;99.90
67752;DHT22;54551;51.068;5.826;2022-12-10T04:39:46;1.20;99.90
67752;DHT22;54551;51.068;5.826;2022-12-10T04:42:12;1.20;99.90
67752;DHT22;54551;51.068;5.826;2022-12-10T04:44:38;1.20;99.90
67752;DHT22;54551;51.068;5.826;2022-12-10T04:47:06;1.30;99.90
67752;DHT22;54551;51.068;5.826;2022-12-10T04:49:32;1.30;99.90
67752;DHT22;54551;51.068;5.826;2022-12-10T04:51:58;1.30;99.90
67752;DHT22;54551;51.068;5.826;2022-12-10T04:54:27;1.30;99.90
67752;DHT22;54551;51.068;5.826;2022-12-10T04:56:53;1.30;99.90
67752;DHT22;54551;51.068;5.826;2022-12-10T04:59:19;1.30;99.90
67752;DHT22;54551;51.068;5.826;2022-12-10T05:01:45;1.30;99.90
67752;DHT22;54551;51.068;5.826;2022-12-10T05:04:14;1.30;99.90
67752;DHT22;54551;51.068;5.826;2022-12-10T05:06:40;1.30;99.90
67752;DHT22;54551;51.068;5.826;2022-12-10T05:09:07;1.40;99.90
67752;DHT22;54551;51.068;5.826;2022-12-10T05:11:33;1.40;99.90
67752;DHT22;54551;51.068;5.826;2022-12-10T05:14:00;1.40;99.90
67752;DHT22;54551;51.068;5.826;2022-12-10T05:16:28;1.40;99.90
67752;DHT22;54551;51.068;5.826;2022-12-10T05:18:55;1.30;99.90
67752;DHT22;54551;51.068;5.826;2022-12-10T05:21:22;1.30;99.90
67752;DHT22;54551;51.068;5.826;2022-12-10T05:23:52;1.30;99.90
67752;DHT22;54551;51.068;5.826;2022-12-10T05:26:23;1.30;99.90
67752;DHT22;54551;51.068;5.826;2022-12-10T05:28:52;1.40;99.90
67752;DHT22;54551;51.068;5.826;2022-12-10T05:31:26;1.40;99.90
67752;DHT22;54551;51.068;5.826;2022-12-10T05:33:53;1.40;99.90
67752;DHT22;54551;51.068;5.826;2022-12-10T05:36:22;1.30;99.90
67752;DHT22;54551;51.068;5.826;2022-12-10T05:38:49;1.30;99.90
67752;DHT22;54551;51.068;5.826;2022-12-10T05:41:18;1.30;99.90
67752;DHT22;54551;51.068;5.826;2022-12-10T05:43:44;1.30;99.90
67752;DHT22;54551;51.068;5.826;2022-12-10T05:46:22;1.30;99.90
67752;DHT22;54551;51.068;5.826;2022-12-10T05:48:49;1.30;99.90
67752;DHT22;54551;51.068;5.826;2022-12-10T05:51:18;1.40;99.90
67752;DHT22;54551;51.068;5.826;2022-12-10T05:53:44;1.40;99.90
67752;DHT22;54551;51.068;5.826;2022-12-10T05:56:13;1.40;99.90
67752;DHT22;54551;51.068;5.826;2022-12-10T05:58:42;1.50;99.90
67752;DHT22;54551;51.068;5.826;2022-12-10T06:01:13;1.50;99.90
67752;DHT22;54551;51.068;5.826;2022-12-10T06:03:41;1.50;99.90
67752;DHT22;54551;51.068;5.826;2022-12-10T06:06:07;1.50;99.90
67752;DHT22;54551;51.068;5.826;2022-12-10T06:08:34;1.50;99.90
67752;DHT22;54551;51.068;5.826;2022-12-10T06:11:04;1.60;99.90
67752;DHT22;54551;51.068;5.826;2022-12-10T06:13:30;1.60;99.90
67752;DHT22;54551;51.068;5.826;2022-12-10T06:15:56;1.50;99.90
67752;DHT22;54551;51.068;5.826;2022-12-10T06:18:22;1.50;99.90
67752;DHT22;54551;51.068;5.826;2022-12-10T06:20:48;1.50;99.90
67752;DHT22;54551;51.068;5.826;2022-12-10T06:23:14;1.50;99.90
67752;DHT22;54551;51.068;5.826;2022-12-10T06:25:40;1.50;99.90
67752;DHT22;54551;51.068;5.826;2022-12-10T06:28:06;1.50;99.90
67752;DHT22;54551;51.068;5.826;2022-12-10T06:30:33;1.50;99.90
67752;DHT22;54551;51.068;5.826;2022-12-10T06:32:59;1.50;99.90
67752;DHT22;54551;51.068;5.826;2022-12-10T06:35:25;1.60;99.90
67752;DHT22;54551;51.068;5.826;2022-12-10T06:37:51;1.60;99.90
67752;DHT22;54551;51.068;5.826;2022-12-10T06:40:17;1.60;99.90
67752;DHT22;54551;51.068;5.826;2022-12-10T06:42:43;1.60;99.90
67752;DHT22;54551;51.068;5.826;2022-12-10T06:45:10;1.60;99.90
67752;DHT22;54551;51.068;5.826;2022-12-10T06:47:36;1.50;99.90
67752;DHT22;54551;51.068;5.826;2022-12-10T06:50:03;1.60;99.90
67752;DHT22;54551;51.068;5.826;2022-12-10T06:52:29;1.60;99.90
67752;DHT22;54551;51.068;5.826;2022-12-10T06:54:55;1.60;99.90
67752;DHT22;54551;51.068;5.826;2022-12-10T06:57:22;1.60;99.90
67752;DHT22;54551;51.068;5.826;2022-12-10T06:59:47;1.60;99.90
67752;DHT22;54551;51.068;5.826;2022-12-10T07:02:13;1.70;99.90
67752;DHT22;54551;51.068;5.826;2022-12-10T07:04:39;1.70;99.90
67752;DHT22;54551;51.068;5.826;2022-12-10T07:07:06;1.70;99.90
67752;DHT22;54551;51.068;5.826;2022-12-10T07:09:33;1.70;99.90
67752;DHT22;54551;51.068;5.826;2022-12-10T07:11:59;1.70;99.90
67752;DHT22;54551;51.068;5.826;2022-12-10T07:14:25;1.70;99.90
67752;DHT22;54551;51.068;5.826;2022-12-10T07:16:51;1.70;99.90
67752;DHT22;54551;51.068;5.826;2022-12-10T07:19:17;1.70;99.90
67752;DHT22;54551;51.068;5.826;2022-12-10T07:21:43;1.70;99.90
67752;DHT22;54551;51.068;5.826;2022-12-10T07:24:12;1.70;99.90
67752;DHT22;54551;51.068;5.826;2022-12-10T07:26:40;1.70;99.90
67752;DHT22;54551;51.068;5.826;2022-12-10T07:29:08;1.70;99.90
67752;DHT22;54551;51.068;5.826;2022-12-10T07:31:36;1.70;99.90
67752;DHT22;54551;51.068;5.826;2022-12-10T07:34:01;1.60;99.90
67752;DHT22;54551;51.068;5.826;2022-12-10T07:36:28;1.70;99.90
67752;DHT22;54551;51.068;5.826;2022-12-10T07:38:54;1.70;99.90
67752;DHT22;54551;51.068;5.826;2022-12-10T07:41:22;1.70;99.90
67752;DHT22;54551;51.068;5.826;2022-12-10T07:43:48;1.70;99.90
67752;DHT22;54551;51.068;5.826;2022-12-10T07:46:17;1.70;99.90
67752;DHT22;54551;51.068;5.826;2022-12-10T07:48:44;1.70;99.90
67752;DHT22;54551;51.068;5.826;2022-12-10T07:51:10;1.70;99.90
67752;DHT22;54551;51.068;5.826;2022-12-10T07:53:36;1.70;99.90
67752;DHT22;54551;51.068;5.826;2022-12-10T07:56:03;1.70;99.90
67752;DHT22;54551;51.068;5.826;2022-12-10T07:58:29;1.70;99.90
67752;DHT22;54551;51.068;5.826;2022-12-10T08:00:55;1.70;99.90
67752;DHT22;54551;51.068;5.826;2022-12-10T08:03:21;1.60;99.90
67752;DHT22;54551;51.068;5.826;2022-12-10T08:05:47;1.60;99.90
67752;DHT22;54551;51.068;5.826;2022-12-10T08:08:13;1.60;99.90
67752;DHT22;54551;51.068;5.826;2022-12-10T08:10:39;1.60;99.90
67752;DHT22;54551;51.068;5.826;2022-12-10T08:13:05;1.60;99.90
67752;DHT22;54551;51.068;5.826;2022-12-10T08:15:32;1.60;99.90
67752;DHT22;54551;51.068;5.826;2022-12-10T08:17:59;1.70;99.90
67752;DHT22;54551;51.068;5.826;2022-12-10T08:20:25;1.70;99.90
67752;DHT22;54551;51.068;5.826;2022-12-10T08:22:51;1.70;99.90
67752;DHT22;54551;51.068;5.826;2022-12-10T08:25:17;1.70;99.90
67752;DHT22;54551;51.068;5.826;2022-12-10T08:27:43;1.70;99.90
67752;DHT22;54551;51.068;5.826;2022-12-10T08:30:09;1.70;99.90
67752;DHT22;54551;51.068;5.826;2022-12-10T08:32:35;1.80;99.90
67752;DHT22;54551;51.068;5.826;2022-12-10T08:35:01;1.80;99.90
67752;DHT22;54551;51.068;5.826;2022-12-10T08:37:27;1.80;99.90
67752;DHT22;54551;51.068;5.826;2022-12-10T08:39:53;1.90;99.90
67752;DHT22;54551;51.068;5.826;2022-12-10T08:42:18;1.80;99.90
67752;DHT22;54551;51.068;5.826;2022-12-10T08:44:44;1.90;99.90
67752;DHT22;54551;51.068;5.826;2022-12-10T08:47:10;1.90;99.90
67752;DHT22;54551;51.068;5.826;2022-12-10T08:49:36;1.90;99.90
67752;DHT22;54551;51.068;5.826;2022-12-10T08:52:02;2.00;99.90
67752;DHT22;54551;51.068;5.826;2022-12-10T08:54:28;1.90;99.90
67752;DHT22;54551;51.068;5.826;2022-12-10T08:56:53;1.80;99.90
67752;DHT22;54551;51.068;5.826;2022-12-10T08:59:19;1.80;99.90
67752;DHT22;54551;51.068;5.826;2022-12-10T09:01:45;1.80;99.90
67752;DHT22;54551;51.068;5.826;2022-12-10T09:04:11;1.80;99.90
67752;DHT22;54551;51.068;5.826;2022-12-10T09:06:38;1.80;99.90
67752;DHT22;54551;51.068;5.826;2022-12-10T09:09:04;1.90;99.90
67752;DHT22;54551;51.068;5.826;2022-12-10T09:11:33;1.90;99.90
67752;DHT22;54551;51.068;5.826;2022-12-10T09:13:59;1.90;99.90
67752;DHT22;54551;51.068;5.826;2022-12-10T09:16:33;1.90;99.90
67752;DHT22;54551;51.068;5.826;2022-12-10T09:19:00;1.90;99.90
67752;DHT22;54551;51.068;5.826;2022-12-10T09:21:26;1.90;99.90
67752;DHT22;54551;51.068;5.826;2022-12-10T09:23:53;2.00;99.90
67752;DHT22;54551;51.068;5.826;2022-12-10T09:26:19;2.00;99.90
67752;DHT22;54551;51.068;5.826;2022-12-10T09:28:46;2.10;99.90
67752;DHT22;54551;51.068;5.826;2022-12-10T09:31:14;2.10;99.90
67752;DHT22;54551;51.068;5.826;2022-12-10T09:33:40;2.20;99.90
67752;DHT22;54551;51.068;5.826;2022-12-10T09:36:07;2.20;99.90
67752;DHT22;54551;51.068;5.826;2022-12-10T09:38:35;2.20;99.90
67752;DHT22;54551;51.068;5.826;2022-12-10T09:52:17;2.50;99.90
67752;DHT22;54551;51.068;5.826;2022-12-10T09:54:57;2.30;99.90
67752;DHT22;54551;51.068;5.826;2022-12-10T09:57:35;2.30;99.90
67752;DHT22;54551;51.068;5.826;2022-12-10T10:00:24;2.40;99.90
67752;DHT22;54551;51.068;5.826;2022-12-10T10:02:52;2.40;99.90
67752;DHT22;54551;51.068;5.826;2022-12-10T10:05:25;2.40;99.90
67752;DHT22;54551;51.068;5.826;2022-12-10T10:07:57;2.40;99.90
67752;DHT22;54551;51.068;5.826;2022-12-10T10:10:36;2.40;99.90
67752;DHT22;54551;51.068;5.826;2022-12-10T10:16:21;2.60;99.90
67752;DHT22;54551;51.068;5.826;2022-12-10T10:19:09;2.70;99.90
67752;DHT22;54551;51.068;5.826;2022-12-10T10:21:42;2.70;99.90
67752;DHT22;54551;51.068;5.826;2022-12-10T10:24:14;2.70;99.90
67752;DHT22;54551;51.068;5.826;2022-12-10T10:26:40;2.70;99.90
67752;DHT22;54551;51.068;5.826;2022-12-10T10:29:09;2.70;99.90
67752;DHT22;54551;51.068;5.826;2022-12-10T10:31:39;2.70;99.90
67752;DHT22;54551;51.068;5.826;2022-12-10T10:34:15;2.70;99.90
67752;DHT22;54551;51.068;5.826;2022-12-10T10:36:41;2.70;99.90
67752;DHT22;54551;51.068;5.826;2022-12-10T10:41:47;2.80;99.90
67752;DHT22;54551;51.068;5.826;2022-12-10T10:44:19;2.80;99.90
67752;DHT22;54551;51.068;5.826;2022-12-10T10:46:47;3.00;99.90
67752;DHT22;54551;51.068;5.826;2022-12-10T10:49:25;3.10;99.90
67752;DHT22;54551;51.068;5.826;2022-12-10T10:51:52;3.10;99.90
67752;DHT22;54551;51.068;5.826;2022-12-10T10:54:40;3.20;99.90
67752;DHT22;54551;51.068;5.826;2022-12-10T10:57:32;3.20;99.90
67752;DHT22;54551;51.068;5.826;2022-12-10T11:00:20;3.40;99.90
67752;DHT22;54551;51.068;5.826;2022-12-10T11:02:48;3.40;99.90
67752;DHT22;54551;51.068;5.826;2022-12-10T11:05:20;3.30;99.90
67752;DHT22;54551;51.068;5.826;2022-12-10T11:07:48;3.30;99.90
67752;DHT22;54551;51.068;5.826;2022-12-10T11:10:22;3.30;99.90
67752;DHT22;54551;51.068;5.826;2022-12-10T11:15:35;3.20;99.90
67752;DHT22;54551;51.068;5.826;2022-12-10T11:18:02;3.20;99.90
67752;DHT22;54551;51.068;5.826;2022-12-10T11:20:32;3.20;99.90
67752;DHT22;54551;51.068;5.826;2022-12-10T11:23:01;3.30;99.90
67752;DHT22;54551;51.068;5.826;2022-12-10T11:39:28;3.40;99.90
67752;DHT22;54551;51.068;5.826;2022-12-10T11:44:58;3.40;99.90
67752;DHT22;54551;51.068;5.826;2022-12-10T11:47:29;3.40;99.90
67752;DHT22;54551;51.068;5.826;2022-12-10T12:01:20;3.30;99.90
67752;DHT22;54551;51.068;5.826;2022-12-10T12:14:58;3.40;99.90
67752;DHT22;54551;51.068;5.826;2022-12-10T12:17:42;3.40;99.90
67752;DHT22;54551;51.068;5.826;2022-12-10T12:20:25;3.40;99.90
67752;DHT22;54551;51.068;5.826;2022-12-10T12:22:58;3.30;99.90
67752;DHT22;54551;51.068;5.826;2022-12-10T12:25:34;3.20;99.90
67752;DHT22;54551;51.068;5.826;2022-12-10T12:28:14;3.10;99.90
67752;DHT22;54551;51.068;5.826;2022-12-10T12:30:47;3.00;99.90
67752;DHT22;54551;51.068;5.826;2022-12-10T12:36:25;2.80;99.90
67752;DHT22;54551;51.068;5.826;2022-12-10T12:44:19;2.70;99.90
67752;DHT22;54551;51.068;5.826;2022-12-10T12:46:49;2.70;99.90
67752;DHT22;54551;51.068;5.826;2022-12-10T12:49:28;2.50;99.90
67752;DHT22;54551;51.068;5.826;2022-12-10T12:54:39;2.40;99.90
67752;DHT22;54551;51.068;5.826;2022-12-10T12:59:59;2.30;99.90
67752;DHT22;54551;51.068;5.826;2022-12-10T13:05:31;2.40;99.90
67752;DHT22;54551;51.068;5.826;2022-12-10T13:13:29;2.40;99.90
67752;DHT22;54551;51.068;5.826;2022-12-10T13:15:56;2.40;99.90
67752;DHT22;54551;51.068;5.826;2022-12-10T13:18:42;2.50;99.90
67752;DHT22;54551;51.068;5.826;2022-12-10T13:21:26;2.50;99.90
67752;DHT22;54551;51.068;5.826;2022-12-10T13:23:54;2.50;99.90
67752;DHT22;54551;51.068;5.826;2022-12-10T13:26:30;2.50;99.90
67752;DHT22;54551;51.068;5.826;2022-12-10T13:29:13;2.50;99.90
67752;DHT22;54551;51.068;5.826;2022-12-10T13:32:02;2.60;99.90
67752;DHT22;54551;51.068;5.826;2022-12-10T13:34:36;2.60;99.90
67752;DHT22;54551;51.068;5.826;2022-12-10T13:37:10;2.60;99.90
67752;DHT22;54551;51.068;5.826;2022-12-10T13:39:54;2.50;99.90
67752;DHT22;54551;51.068;5.826;2022-12-10T13:42:29;2.40;99.90
67752;DHT22;54551;51.068;5.826;2022-12-10T13:47:51;2.40;99.90
67752;DHT22;54551;51.068;5.826;2022-12-10T13:50:35;2.30;99.90
67752;DHT22;54551;51.068;5.826;2022-12-10T13:55:55;2.30;99.90
67752;DHT22;54551;51.068;5.826;2022-12-10T13:58:42;2.20;99.90
67752;DHT22;54551;51.068;5.826;2022-12-10T14:07:09;2.20;99.90
67752;DHT22;54551;51.068;5.826;2022-12-10T14:09:51;2.20;99.90
67752;DHT22;54551;51.068;5.826;2022-12-10T14:12:31;2.30;99.90
67752;DHT22;54551;51.068;5.826;2022-12-10T14:15:03;2.30;99.90
67752;DHT22;54551;51.068;5.826;2022-12-10T14:17:38;2.30;99.90
67752;DHT22;54551;51.068;5.826;2022-12-10T14:20:07;2.30;99.90
67752;DHT22;54551;51.068;5.826;2022-12-10T14:22:37;2.30;99.90
67752;DHT22;54551;51.068;5.826;2022-12-10T14:25:10;2.20;99.90
67752;DHT22;54551;51.068;5.826;2022-12-10T14:27:37;2.30;99.90
67752;DHT22;54551;51.068;5.826;2022-12-10T14:30:06;2.20;99.90
67752;DHT22;54551;51.068;5.826;2022-12-10T14:32:39;2.20;99.90
67752;DHT22;54551;51.068;5.826;2022-12-10T14:35:35;2.30;99.90
67752;DHT22;54551;51.068;5.826;2022-12-10T14:38:01;2.20;99.90
67752;DHT22;54551;51.068;5.826;2022-12-10T14:40:45;2.20;99.90
67752;DHT22;54551;51.068;5.826;2022-12-10T14:43:13;2.10;99.90
67752;DHT22;54551;51.068;5.826;2022-12-10T14:45:46;2.10;99.90
67752;DHT22;54551;51.068;5.826;2022-12-10T14:48:14;2.10;99.90
67752;DHT22;54551;51.068;5.826;2022-12-10T14:50:44;2.20;99.90
67752;DHT22;54551;51.068;5.826;2022-12-10T14:53:25;2.10;99.90
67752;DHT22;54551;51.068;5.826;2022-12-10T14:56:04;2.20;99.90
67752;DHT22;54551;51.068;5.826;2022-12-10T14:58:47;2.20;99.90
67752;DHT22;54551;51.068;5.826;2022-12-10T15:01:27;2.20;99.90
67752;DHT22;54551;51.068;5.826;2022-12-10T15:03:55;2.10;99.90
67752;DHT22;54551;51.068;5.826;2022-12-10T15:06:23;2.00;99.90
67752;DHT22;54551;51.068;5.826;2022-12-10T15:08:49;2.00;99.90
67752;DHT22;54551;51.068;5.826;2022-12-10T15:11:19;1.90;99.90
67752;DHT22;54551;51.068;5.826;2022-12-10T15:13:48;1.90;99.90
67752;DHT22;54551;51.068;5.826;2022-12-10T15:16:19;1.80;99.90
67752;DHT22;54551;51.068;5.826;2022-12-10T15:18:45;1.80;99.90
67752;DHT22;54551;51.068;5.826;2022-12-10T15:21:21;1.80;99.90
67752;DHT22;54551;51.068;5.826;2022-12-10T15:23:48;1.70;99.90
67752;DHT22;54551;51.068;5.826;2022-12-10T15:26:21;1.70;99.90
67752;DHT22;54551;51.068;5.826;2022-12-10T15:28:49;1.60;99.90
67752;DHT22;54551;51.068;5.826;2022-12-10T15:31:31;1.60;99.90
67752;DHT22;54551;51.068;5.826;2022-12-10T15:34:06;1.50;99.90
67752;DHT22;54551;51.068;5.826;2022-12-10T15:37:11;1.60;99.90
67752;DHT22;54551;51.068;5.826;2022-12-10T15:39:30;1.50;99.90
67752;DHT22;54551;51.068;5.826;2022-12-10T15:41:59;1.40;99.90
67752;DHT22;54551;51.068;5.826;2022-12-10T15:44:38;1.50;99.90
67752;DHT22;54551;51.068;5.826;2022-12-10T15:49:40;1.40;99.90
67752;DHT22;54551;51.068;5.826;2022-12-10T15:52:11;1.40;99.90
67752;DHT22;54551;51.068;5.826;2022-12-10T15:54:42;1.50;99.90
67752;DHT22;54551;51.068;5.826;2022-12-10T15:57:32;1.50;99.90
67752;DHT22;54551;51.068;5.826;2022-12-10T16:00:00;1.50;99.90
67752;DHT22;54551;51.068;5.826;2022-12-10T16:02:58;1.50;99.90
67752;DHT22;54551;51.068;5.826;2022-12-10T16:05:27;1.50;99.90
67752;DHT22;54551;51.068;5.826;2022-12-10T16:08:00;1.50;99.90
67752;DHT22;54551;51.068;5.826;2022-12-10T16:10:27;1.50;99.90
67752;DHT22;54551;51.068;5.826;2022-12-10T16:13:00;1.50;99.90
67752;DHT22;54551;51.068;5.826;2022-12-10T16:15:29;1.50;99.90
67752;DHT22;54551;51.068;5.826;2022-12-10T16:17:56;1.50;99.90
67752;DHT22;54551;51.068;5.826;2022-12-10T16:20:25;1.50;99.90
67752;DHT22;54551;51.068;5.826;2022-12-10T16:22:53;1.50;99.90
67752;DHT22;54551;51.068;5.826;2022-12-10T16:25:19;1.60;99.90
67752;DHT22;54551;51.068;5.826;2022-12-10T16:27:45;1.60;99.90
67752;DHT22;54551;51.068;5.826;2022-12-10T16:32:49;1.60;99.90
67752;DHT22;54551;51.068;5.826;2022-12-10T16:35:15;1.60;99.90
67752;DHT22;54551;51.068;5.826;2022-12-10T16:37:45;1.60;99.90
67752;DHT22;54551;51.068;5.826;2022-12-10T16:40:13;1.60;99.90
67752;DHT22;54551;51.068;5.826;2022-12-10T16:42:40;1.70;99.90
67752;DHT22;54551;51.068;5.826;2022-12-10T16:45:16;1.70;99.90
67752;DHT22;54551;51.068;5.826;2022-12-10T16:47:43;1.70;99.90
67752;DHT22;54551;51.068;5.826;2022-12-10T16:50:10;1.80;99.90
67752;DHT22;54551;51.068;5.826;2022-12-10T16:52:37;1.80;99.90
67752;DHT22;54551;51.068;5.826;2022-12-10T16:55:04;1.80;99.90
67752;DHT22;54551;51.068;5.826;2022-12-10T16:57:30;1.80;99.90
67752;DHT22;54551;51.068;5.826;2022-12-10T16:59:56;1.80;99.90
67752;DHT22;54551;51.068;5.826;2022-12-10T17:02:22;1.80;99.90
67752;DHT22;54551;51.068;5.826;2022-12-10T17:04:48;1.90;99.90
67752;DHT22;54551;51.068;5.826;2022-12-10T17:07:14;1.80;99.90
67752;DHT22;54551;51.068;5.826;2022-12-10T17:09:40;1.90;99.90
67752;DHT22;54551;51.068;5.826;2022-12-10T17:12:07;1.90;99.90
67752;DHT22;54551;51.068;5.826;2022-12-10T17:14:44;1.90;99.90
67752;DHT22;54551;51.068;5.826;2022-12-10T17:17:13;1.90;99.90
67752;DHT22;54551;51.068;5.826;2022-12-10T17:19:39;1.90;99.90
67752;DHT22;54551;51.068;5.826;2022-12-10T17:22:06;1.90;99.90
67752;DHT22;54551;51.068;5.826;2022-12-10T17:24:32;1.80;99.90
67752;DHT22;54551;51.068;5.826;2022-12-10T17:27:20;1.80;99.90
67752;DHT22;54551;51.068;5.826;2022-12-10T17:29:47;1.80;99.90
67752;DHT22;54551;51.068;5.826;2022-12-10T17:32:20;1.80;99.90
67752;DHT22;54551;51.068;5.826;2022-12-10T17:34:46;1.70;99.90
67752;DHT22;54551;51.068;5.826;2022-12-10T17:37:18;1.80;99.90
67752;DHT22;54551;51.068;5.826;2022-12-10T17:39:45;1.80;99.90
67752;DHT22;54551;51.068;5.826;2022-12-10T17:42:11;1.80;99.90
67752;DHT22;54551;51.068;5.826;2022-12-10T17:44:37;1.80;99.90
67752;DHT22;54551;51.068;5.826;2022-12-10T17:47:24;1.90;99.90
67752;DHT22;54551;51.068;5.826;2022-12-10T17:49:51;1.90;99.90
67752;DHT22;54551;51.068;5.826;2022-12-10T17:52:17;1.90;99.90
67752;DHT22;54551;51.068;5.826;2022-12-10T17:54:43;2.00;99.90
67752;DHT22;54551;51.068;5.826;2022-12-10T17:57:17;1.90;99.90
67752;DHT22;54551;51.068;5.826;2022-12-10T17:59:43;2.00;99.90
67752;DHT22;54551;51.068;5.826;2022-12-10T18:02:10;2.00;99.90